createdAt,value
2018-12-15T00:04:34.405Z,0.30
2018-12-15T00:09:43.182Z,0.30
2018-12-15T00:14:49.934Z,0.20
2018-12-15T00:19:55.733Z,0.20
2018-12-15T00:25:03.085Z,0.20
2018-12-15T00:30:10.795Z,0.20
2018-12-15T00:40:27.515Z,0.20
2018-12-15T00:45:33.628Z,0.20
2018-12-15T00:50:39.378Z,0.20
2018-12-15T00:55:45.412Z,0.20
2018-12-15T01:00:51.235Z,0.20
2018-12-15T01:05:58.043Z,0.20
2018-12-15T01:11:03.960Z,0.20
2018-12-15T01:16:10.016Z,0.20
2018-12-15T01:21:15.801Z,0.20
2018-12-15T01:26:25.566Z,0.20
2018-12-15T01:31:33.192Z,0.20
2018-12-15T01:36:39.048Z,0.20
2018-12-15T01:41:44.961Z,0.20
2018-12-15T01:47:00.118Z,0.20
2018-12-15T01:59:44.026Z,0.30
2018-12-15T02:04:50.918Z,0.30
2018-12-15T02:09:56.763Z,0.30
2018-12-15T02:15:02.650Z,0.30
2018-12-15T02:20:11.416Z,0.30
2018-12-15T02:25:17.307Z,0.30
2018-12-15T02:30:24.670Z,0.30
2018-12-15T02:35:32.165Z,0.30
2018-12-15T02:40:39.303Z,0.30
2018-12-15T02:45:47.331Z,0.30
2018-12-15T02:50:53.155Z,0.40
2018-12-15T02:55:59.035Z,0.30
2018-12-15T03:01:10.748Z,0.40
2018-12-15T03:06:16.636Z,0.40
2018-12-15T03:11:23.937Z,0.40
2018-12-15T03:16:29.995Z,0.40
2018-12-15T03:21:37.161Z,0.40
2018-12-15T03:26:43.959Z,0.40
2018-12-15T03:31:49.804Z,0.40
2018-12-15T03:36:55.585Z,0.40
2018-12-15T03:42:01.528Z,0.40
2018-12-15T03:47:07.299Z,0.40
2018-12-15T03:52:15.365Z,0.40
2018-12-15T03:57:23.183Z,0.40
2018-12-15T04:02:30.143Z,0.40
2018-12-15T04:07:36.991Z,0.40
2018-12-15T04:12:44.249Z,0.50
2018-12-15T04:17:50.195Z,0.50
2018-12-15T04:22:56.006Z,0.40
2018-12-15T04:28:01.778Z,0.50
2018-12-15T04:33:07.585Z,0.40
2018-12-15T04:38:17.763Z,0.50
2018-12-15T04:43:23.635Z,0.50
2018-12-15T04:48:38.165Z,0.40
2018-12-15T04:53:46.287Z,0.40
2018-12-15T04:58:53.465Z,0.40
2018-12-15T05:04:01.316Z,0.50
2018-12-15T05:09:07.770Z,0.50
2018-12-15T05:14:15.064Z,0.50
2018-12-15T05:19:20.874Z,0.50
2018-12-15T05:24:26.857Z,0.50
2018-12-15T05:29:33.547Z,0.50
2018-12-15T05:34:39.472Z,0.50
2018-12-15T05:39:48.823Z,0.40
2018-12-15T05:44:54.617Z,0.40
2018-12-15T05:50:02.847Z,0.50
2018-12-15T05:55:08.757Z,0.50
2018-12-15T06:00:14.721Z,0.50
2018-12-15T06:05:20.762Z,0.50
2018-12-15T06:10:26.550Z,0.40
2018-12-15T06:15:32.372Z,0.40
2018-12-15T06:20:39.524Z,0.50
2018-12-15T06:25:45.468Z,0.50
2018-12-15T06:30:51.266Z,0.50
2018-12-15T06:35:58.386Z,0.50
2018-12-15T06:41:04.182Z,0.50
2018-12-15T06:46:11.514Z,0.50
2018-12-15T06:51:20.788Z,0.50
2018-12-15T06:56:27.978Z,0.50
2018-12-15T07:01:34.946Z,0.50
2018-12-15T07:06:42.058Z,0.50
2018-12-15T07:11:48.113Z,0.50
2018-12-15T07:16:54.765Z,0.50
2018-12-15T07:22:00.567Z,0.50
2018-12-15T07:27:09.139Z,0.50
2018-12-15T07:32:15.926Z,0.50
2018-12-15T07:37:21.787Z,0.50
2018-12-15T07:42:31.331Z,0.50
2018-12-15T07:47:38.894Z,0.50
2018-12-15T07:52:44.925Z,0.50
2018-12-15T07:57:51.958Z,0.60
2018-12-15T08:02:58.780Z,0.60
2018-12-15T08:08:05.525Z,0.60
2018-12-15T08:13:15.696Z,0.60
2018-12-15T08:18:21.629Z,0.70
2018-12-15T08:23:31.371Z,0.70
2018-12-15T08:28:41.759Z,0.70
2018-12-15T08:33:50.734Z,0.70
2018-12-15T08:38:58.989Z,0.80
2018-12-15T08:44:06.397Z,0.80
2018-12-15T08:49:13.145Z,0.80
2018-12-15T08:54:19.078Z,0.90
2018-12-15T08:59:25.121Z,0.90
2018-12-15T09:04:31.077Z,0.90
2018-12-15T09:09:36.857Z,1.00
2018-12-15T09:14:43.779Z,1.10
2018-12-15T09:19:49.561Z,1.10
2018-12-15T09:24:56.735Z,1.20
2018-12-15T09:30:04.269Z,1.30
2018-12-15T09:35:10.747Z,1.30
2018-12-15T09:40:16.855Z,1.40
2018-12-15T09:45:23.684Z,1.40
2018-12-15T09:50:30.089Z,1.40
2018-12-15T09:55:36.235Z,1.50
2018-12-15T10:00:42.147Z,1.60
2018-12-15T10:05:56.872Z,1.50
2018-12-15T10:11:03.261Z,1.50
2018-12-15T10:16:11.095Z,1.50
2018-12-15T10:21:18.205Z,1.40
2018-12-15T10:26:24.111Z,1.30
2018-12-15T10:31:35.485Z,1.30
2018-12-15T10:36:42.416Z,1.30
2018-12-15T10:41:48.287Z,1.30
2018-12-15T10:46:54.447Z,1.30
2018-12-15T10:52:02.497Z,1.40
2018-12-15T10:57:08.431Z,1.40
2018-12-15T11:02:14.968Z,1.40
2018-12-15T11:07:22.270Z,1.30
2018-12-15T11:12:28.602Z,1.30
2018-12-15T11:17:34.787Z,1.30
2018-12-15T11:22:40.606Z,1.30
2018-12-15T11:27:46.310Z,1.30
2018-12-15T11:32:53.350Z,1.30
2018-12-15T11:38:00.349Z,1.30
2018-12-15T11:43:08.177Z,1.40
2018-12-15T11:48:16.667Z,1.50
2018-12-15T11:53:22.676Z,1.60
2018-12-15T11:58:29.700Z,1.70
2018-12-15T12:03:35.548Z,1.80
2018-12-15T12:08:41.452Z,1.80
2018-12-15T12:13:47.290Z,1.80
2018-12-15T12:18:53.982Z,1.70
2018-12-15T12:24:00.793Z,1.60
2018-12-15T12:29:08.996Z,1.60
2018-12-15T12:34:16.043Z,1.50
2018-12-15T12:39:22.883Z,1.50
2018-12-15T12:44:32.334Z,1.50
2018-12-15T12:49:38.516Z,1.60
2018-12-15T12:54:45.596Z,1.50
2018-12-15T12:59:54.053Z,1.40
2018-12-15T13:05:00.288Z,1.40
2018-12-15T13:10:06.858Z,1.40
2018-12-15T13:15:12.786Z,1.50
2018-12-15T13:20:20.635Z,1.50
2018-12-15T13:25:27.422Z,1.50
2018-12-15T13:30:33.186Z,1.50
2018-12-15T13:35:39.114Z,1.50
2018-12-15T13:40:44.947Z,1.30
2018-12-15T13:45:50.747Z,1.30
2018-12-15T13:50:57.538Z,1.20
2018-12-15T13:56:06.311Z,1.10
2018-12-15T14:01:13.273Z,1.10
2018-12-15T14:06:20.008Z,1.00
2018-12-15T14:11:25.824Z,1.00
2018-12-15T14:16:33.194Z,1.00
2018-12-15T14:21:41.476Z,0.90
2018-12-15T14:26:47.278Z,0.80
2018-12-15T14:31:53.081Z,0.80
2018-12-15T14:36:59.387Z,0.70
2018-12-15T14:42:05.983Z,0.70
2018-12-15T14:47:12.166Z,0.70
2018-12-15T14:52:18.885Z,0.60
2018-12-15T14:57:26.656Z,0.60
2018-12-15T15:02:32.512Z,0.60
2018-12-15T15:07:38.226Z,0.60
2018-12-15T15:12:44.116Z,0.60
2018-12-15T15:17:49.947Z,0.60
2018-12-15T15:22:55.764Z,0.60
2018-12-15T15:28:01.928Z,0.60
2018-12-15T15:33:08.722Z,0.50
2018-12-15T15:38:14.516Z,0.60
2018-12-15T15:43:23.268Z,0.60
2018-12-15T15:48:33.929Z,0.60
2018-12-15T15:53:39.869Z,0.50
2018-12-15T15:58:45.756Z,0.60
2018-12-15T16:03:51.609Z,0.60
2018-12-15T16:08:57.436Z,0.60
2018-12-15T16:14:03.483Z,0.60
2018-12-15T16:19:10.450Z,0.50
2018-12-15T16:24:20.594Z,0.60
2018-12-15T16:29:26.397Z,0.60
2018-12-15T16:34:32.185Z,0.60
2018-12-15T16:39:37.979Z,0.60
2018-12-15T16:44:45.540Z,0.60
2018-12-15T16:49:53.867Z,0.60
2018-12-15T16:55:00.439Z,0.60
2018-12-15T17:00:13.328Z,0.60
2018-12-15T17:05:20.843Z,0.50
2018-12-15T17:10:29.881Z,0.60
2018-12-15T17:15:36.749Z,0.50
2018-12-15T17:20:45.318Z,0.50
2018-12-15T17:25:51.290Z,0.50
2018-12-15T17:30:57.275Z,0.50
2018-12-15T17:36:03.648Z,0.50
2018-12-15T17:41:14.495Z,0.50
2018-12-15T17:46:25.166Z,0.50
2018-12-15T17:51:36.096Z,0.50
2018-12-15T17:56:42.004Z,0.50
2018-12-15T18:01:47.798Z,0.50
2018-12-15T18:06:53.775Z,0.50
2018-12-15T18:12:00.055Z,0.60
2018-12-15T18:17:06.154Z,0.50
2018-12-15T18:22:12.008Z,0.50
2018-12-15T18:27:17.911Z,0.60
2018-12-15T18:32:24.741Z,0.60
2018-12-15T18:37:30.820Z,0.50
2018-12-15T18:42:37.492Z,0.50
2018-12-15T18:47:43.435Z,0.60
2018-12-15T18:52:50.448Z,0.60
2018-12-15T18:57:56.378Z,0.50
2018-12-15T19:03:02.201Z,0.50
2018-12-15T19:08:08.200Z,0.50
2018-12-15T19:13:14.144Z,0.50
2018-12-15T19:18:24.020Z,0.50
2018-12-15T19:23:30.780Z,0.50
2018-12-15T19:28:37.251Z,0.50
2018-12-15T19:33:43.190Z,0.50
2018-12-15T19:38:49.434Z,0.50
2018-12-15T19:43:55.467Z,0.50
2018-12-15T19:49:01.291Z,0.50
2018-12-15T19:54:07.217Z,0.50
2018-12-15T19:59:14.906Z,0.50
2018-12-15T20:04:20.946Z,0.50
2018-12-15T20:09:27.877Z,0.50
2018-12-15T20:14:33.794Z,0.50
2018-12-15T20:19:39.895Z,0.50
2018-12-15T20:24:47.441Z,0.60
2018-12-15T20:29:54.491Z,0.50
2018-12-15T20:35:00.341Z,0.60
2018-12-15T20:40:09.252Z,0.50
2018-12-15T20:45:15.123Z,0.50
2018-12-15T20:50:21.192Z,0.50
2018-12-15T20:55:29.024Z,0.50
2018-12-15T21:00:36.953Z,0.50
2018-12-15T21:05:43.102Z,0.60
2018-12-15T21:10:49.971Z,0.50
2018-12-15T21:16:02.427Z,0.50
2018-12-15T21:21:09.026Z,0.50
2018-12-15T21:26:17.277Z,0.50
2018-12-15T21:31:26.344Z,0.50
2018-12-15T21:36:36.125Z,0.50
2018-12-15T21:41:44.588Z,0.50
2018-12-15T21:46:50.443Z,0.50
2018-12-15T21:51:56.598Z,0.50
2018-12-15T21:57:02.471Z,0.60
2018-12-15T22:02:15.153Z,0.60
2018-12-15T22:07:21.000Z,0.50
2018-12-15T22:12:27.794Z,0.60
2018-12-15T22:17:33.652Z,0.60
2018-12-15T22:22:40.822Z,0.60
2018-12-15T22:27:46.688Z,0.60
2018-12-15T22:32:53.921Z,0.60
2018-12-15T22:37:59.756Z,0.60
2018-12-15T22:43:05.907Z,0.60
2018-12-15T22:48:11.712Z,0.60
2018-12-15T22:53:19.762Z,0.50
2018-12-15T22:58:25.578Z,0.50
2018-12-15T23:03:31.508Z,0.50
2018-12-15T23:08:37.311Z,0.50
2018-12-15T23:13:43.196Z,0.50
2018-12-15T23:18:49.052Z,0.40
2018-12-15T23:23:54.968Z,0.50
2018-12-15T23:29:01.825Z,0.40
2018-12-15T23:34:09.758Z,0.40
2018-12-15T23:39:17.515Z,0.40
2018-12-15T23:44:24.469Z,0.40
2018-12-15T23:49:31.345Z,0.40
2018-12-15T23:54:37.703Z,0.30
2018-12-15T23:59:45.110Z,0.30
